Central Sonoma County Latest

29 Stations

15 Minute Data | America/Los_Angeles
as of 11/29/21 7:32 AM PST
Station Date Time Temp (°F) RH (%) Dew Pt (°F) Wind Spd (mph) Wind Dir (°) Wind Gust (mph) Latest Rain (In) Daily Rain (In) Daily Min Temp (°F) Daily Max Temp (°F)
Healdsburg-South (Sodini) 11/29/21 0730 41.6   1.6 99   1 41.3   1.4 0.0 N | 0 0.0   0.0 0.00 0.01 41.2   1.2 46.5   0.2
Windsor-NW (Ranch 8) 11/29/21 0730 45.3   1.1 87   1 41.8   0.8 0.4 NNW | 342 2.6   1.0 0.00 0.00 45.1   0.6 50.0   0.1
Windsor-East (Ranch 16) 11/29/21 0730 40.8   2.2 100   2 40.8   1.8 0.0 NNW | 336 0.7   0.8 0.00 0.00 40.3   1.3 46.8   0.6
Mark West-North (Ranch 14) 11/29/21 0730 40.5   2.1 99   0 40.2   2.0 0.0 N | 0 0.0   0.8 0.00 0.00 39.8   1.1 46.0   0.2
Windsor-SE (Silk Rd) 11/29/21 0730 42.2   1.5 100   0 42.2   1.5 0.2 SE | 125 1.2   0.3 0.00 0.00 41.4   0.9 44.8   0.2
Fulton-NW (Ranch 5) 11/29/21 0730 41.2   0.3 100   0 41.2   0.4 0.0 N | 0 0.0   1.7 0.00 0.00 40.5   0.3 45.8   0.2
Windsor-South (Laughlin Rd) 11/29/21 0730 43.5   0.6 - - - - - 0.00 0.00 42.3   0.5 49.9   1.0
Fulton-SE (Barnes Rd) 11/29/21 0730 40.6   1.5 98   1 40.2   1.2 0.4 NW | 308 1.2   1.2 0.00 0.00 39.9   1.4 47.4   0.9
Fulton-SW (Ranch 21) 11/29/21 0730 43.1   0.0 100   0 43.2   0.0 0.4 N | 1 1.3   0.2 0.00 0.00 42.6   0.1 47.9   0.2
Santa Rosa-NW (Goldfields) 11/29/21 0730 44.2   0.8 100   0 44.2   0.8 0.5 NW | 325 1.9   0.4 0.00 0.00 43.4   1.1 48.3   1.0
NW Santa Rosa (Piner Road) 11/29/21 0730 44.2   2.3 99   0 44.0   2.4 0.0 N | 0 0.0   0.7 0.00 0.00 43.1   2.0 46.3   0.2
River Rd South (Denner Ranch) 11/29/21 0730 43.0   0.0 100   0 43.0   0.0 0.1 N | 10 1.1   0.2 - - 41.8   0.2 47.8   1.0
West Santa Rosa (Hawk's Roost) 11/29/21 0730 43.8   1.5 100   1 43.8   1.8 0.0 N | 0 0.0   0.0 0.00 0.00 43.0   1.2 46.7   0.1
Guerneville Rd (Prokopakis) 11/29/21 0730 43.6   0.9 100   0 43.6   0.9 - - - 0.00 0.00 42.3   0.1 47.5   0.6
Guerneville Rd West (Balletto) 11/29/21 0730 44.1   3.1 99   0 43.8   3.2 0.1 NNW | 327 1.3   0.3 0.00 0.00 42.2   1.5 44.5   0.1
Guerneville Rd East (Rich Ranch) 11/29/21 0730 43.9   2.2 100   0 43.9   2.3 - - - - - 43.1   2.2 45.6   0.2
Occidental Rd (Sebastopol) 11/29/21 0730 43.5   1.9 100   0 43.5   1.9 0.2 NNW | 338 1.3   1.3 0.00 0.00 41.3   0.6 46.1   0.1
Lower Westside Rd (Ranch 12) 11/29/21 0730 42.3   0.3 100   0 42.3   0.3 0.0 N | 0 0.0   0.0 0.00 0.00 41.3   0.2 46.4   0.7
Guerneville (Laughlin Rd) 11/29/21 0730 45.2   3.6 100   0 45.2   3.7 0.1 NNW | 338 1.2   1.2 0.00 0.01 45.1   4.2 48.3   3.2
Korbel (Winery) 11/29/21 0730 46.3   4.0 100   0 46.3   4.0 1.0 NW | 309 2.4   2.4 0.00 0.01 46.2   4.7 48.0   2.9
Forestville (Shone Farms) 11/29/21 0730 43.0   2.9 97   0 42.2   2.9 0.0 N | 0 0.0   1.3 0.00 0.00 42.3   1.5 50.3   0.5
Forestville-NE (Ranch 30) 11/29/21 0730 43.8   0.1 100   0 43.7   0.2 0.1 NNW | 346 0.8   0.1 0.00 0.00 43.7   2.1 48.2   1.8
Green Valley Vineyard 11/29/21 0730 44.9   1.3 100   1 44.7   0.9 0.0 N | 0 0.0   0.4 0.00 0.00 44.2   0.9 49.7   0.7
Graton-West (Dutton Ranch) 11/29/21 0730 40.4   1.3 100   0 40.4   1.3 0.9 NNE | 29 2.0   0.6 0.00 0.00 40.1   0.9 45.6   0.1
Graton-South (Mill Station Rd) 11/29/21 0730 39.6   0.2 100   2 39.6   0.3 0.9 SE | 127 2.3   2.3 0.00 0.00 38.4   0.5 43.7   0.4
Occidental (Horseshoe Bend) 11/29/21 0730 52.1   2.7 96   13 51.0   1.3 - - - - - 50.9   2.6 56.6   0.9
Sexton Valley (Jacqueline's Blk) 11/29/21 0730 40.2   0.4 99   0 39.9   0.3 0.0 N | 0 0.0   0.0 0.00 0.00 39.0   1.4 44.5   0.5
Sebastopol Hills (Burnside Rd) 11/29/21 0730 49.7   0.2 99   3 49.5   0.6 0.0 NNE | 13 0.6   1.1 0.00 0.00 48.9   0.1 53.6   0.3
Seaview/Fort Ross (Hirsch) 11/29/21 0730 60.8   1.5 45   28 39.5   11.2 1.7 ENE | 62 3.0   0.5 0.00 0.00 56.2   2.1 61.2   2.8
Max     60.8 100 51.0 1.7 - 3.0 0.00 0.01 56.2 61.2
Avg     44.1 97 43.0 0.3 - 1.0 0.00 - - -
Min     39.6 45 39.5 0.0 - 0.0 0.00 0.00 38.4 43.7